sensor_id;sensor_type;location;lat;lon;timestamp;pressure;altitude;pressure_sealevel;temperature
76394;BMP180;65216;51.090;-115.352;2023-02-23T00:00:27;86801.40;;;20.40
76394;BMP180;65216;51.090;-115.352;2023-02-23T00:02:59;86803.40;;;20.40
76394;BMP180;65216;51.090;-115.352;2023-02-23T00:05:31;86817.40;;;20.40
76394;BMP180;65216;51.090;-115.352;2023-02-23T00:08:02;86813.80;;;20.40
76394;BMP180;65216;51.090;-115.352;2023-02-23T00:10:30;86806.60;;;20.40
76394;BMP180;65216;51.090;-115.352;2023-02-23T00:13:02;86812.80;;;20.40
76394;BMP180;65216;51.090;-115.352;2023-02-23T00:15:30;86807.00;;;20.38
76394;BMP180;65216;51.090;-115.352;2023-02-23T00:17:57;86812.40;;;20.30
76394;BMP180;65216;51.090;-115.352;2023-02-23T00:20:26;86808.20;;;20.30
76394;BMP180;65216;51.090;-115.352;2023-02-23T00:22:55;86809.00;;;20.30
76394;BMP180;65216;51.090;-115.352;2023-02-23T00:25:24;86814.60;;;20.30
76394;BMP180;65216;51.090;-115.352;2023-02-23T00:27:56;86805.20;;;20.28
76394;BMP180;65216;51.090;-115.352;2023-02-23T00:30:24;86809.40;;;20.20
76394;BMP180;65216;51.090;-115.352;2023-02-23T00:32:52;86802.80;;;20.20
76394;BMP180;65216;51.090;-115.352;2023-02-23T00:35:19;86806.00;;;20.20
76394;BMP180;65216;51.090;-115.352;2023-02-23T00:37:48;86817.00;;;20.20
76394;BMP180;65216;51.090;-115.352;2023-02-23T00:40:16;86816.80;;;20.18
76394;BMP180;65216;51.090;-115.352;2023-02-23T00:42:48;86821.20;;;20.10
76394;BMP180;65216;51.090;-115.352;2023-02-23T00:45:17;86823.40;;;20.10
76394;BMP180;65216;51.090;-115.352;2023-02-23T00:47:51;86832.60;;;20.10
76394;BMP180;65216;51.090;-115.352;2023-02-23T00:50:18;86830.80;;;20.10
76394;BMP180;65216;51.090;-115.352;2023-02-23T00:52:46;86825.00;;;20.10
76394;BMP180;65216;51.090;-115.352;2023-02-23T00:55:15;86824.80;;;20.10
76394;BMP180;65216;51.090;-115.352;2023-02-23T00:57:45;86833.00;;;20.10
76394;BMP180;65216;51.090;-115.352;2023-02-23T01:00:12;86828.60;;;20.10
76394;BMP180;65216;51.090;-115.352;2023-02-23T01:02:47;86836.60;;;20.02
76394;BMP180;65216;51.090;-115.352;2023-02-23T01:05:15;86846.80;;;20.00
76394;BMP180;65216;51.090;-115.352;2023-02-23T01:07:50;86841.20;;;20.00
76394;BMP180;65216;51.090;-115.352;2023-02-23T01:10:18;86845.20;;;20.00
76394;BMP180;65216;51.090;-115.352;2023-02-23T01:12:50;86852.00;;;20.00
76394;BMP180;65216;51.090;-115.352;2023-02-23T01:15:20;86850.60;;;19.96
76394;BMP180;65216;51.090;-115.352;2023-02-23T01:17:47;86852.20;;;19.90
76394;BMP180;65216;51.090;-115.352;2023-02-23T01:20:16;86847.80;;;19.90
76394;BMP180;65216;51.090;-115.352;2023-02-23T01:22:50;86856.60;;;19.88
76394;BMP180;65216;51.090;-115.352;2023-02-23T01:25:18;86857.00;;;19.86
76394;BMP180;65216;51.090;-115.352;2023-02-23T01:27:45;86849.00;;;19.80
76394;BMP180;65216;51.090;-115.352;2023-02-23T01:30:14;86868.80;;;19.80
76394;BMP180;65216;51.090;-115.352;2023-02-23T01:32:41;86872.80;;;19.80
76394;BMP180;65216;51.090;-115.352;2023-02-23T01:35:11;86877.40;;;19.80
76394;BMP180;65216;51.090;-115.352;2023-02-23T01:37:42;86879.00;;;19.78
76394;BMP180;65216;51.090;-115.352;2023-02-23T01:40:19;86880.40;;;19.70
76394;BMP180;65216;51.090;-115.352;2023-02-23T01:43:21;86874.00;;;19.70
76394;BMP180;65216;51.090;-115.352;2023-02-23T01:45:56;86881.80;;;19.70
76394;BMP180;65216;51.090;-115.352;2023-02-23T01:48:35;86880.80;;;19.70
76394;BMP180;65216;51.090;-115.352;2023-02-23T01:53:39;86880.60;;;19.70
76394;BMP180;65216;51.090;-115.352;2023-02-23T01:56:20;86882.80;;;19.60
76394;BMP180;65216;51.090;-115.352;2023-02-23T01:58:56;86892.00;;;19.60
76394;BMP180;65216;51.090;-115.352;2023-02-23T02:01:25;86901.80;;;19.60
76394;BMP180;65216;51.090;-115.352;2023-02-23T02:04:02;86899.20;;;19.60
76394;BMP180;65216;51.090;-115.352;2023-02-23T02:06:34;86897.40;;;19.60
76394;BMP180;65216;51.090;-115.352;2023-02-23T02:09:09;86897.20;;;19.60
76394;BMP180;65216;51.090;-115.352;2023-02-23T02:11:44;86900.20;;;19.62
76394;BMP180;65216;51.090;-115.352;2023-02-23T02:14:27;86894.00;;;19.60
76394;BMP180;65216;51.090;-115.352;2023-02-23T02:17:26;86904.20;;;19.60
76394;BMP180;65216;51.090;-115.352;2023-02-23T02:26:25;86909.80;;;19.70
76394;BMP180;65216;51.090;-115.352;2023-02-23T02:44:13;86930.80;;;19.60
76394;BMP180;65216;51.090;-115.352;2023-02-23T02:46:48;86936.20;;;19.62
76394;BMP180;65216;51.090;-115.352;2023-02-23T02:49:37;86942.20;;;19.68
76394;BMP180;65216;51.090;-115.352;2023-02-23T02:52:31;86941.20;;;19.70
76394;BMP180;65216;51.090;-115.352;2023-02-23T02:55:13;86946.80;;;19.70
76394;BMP180;65216;51.090;-115.352;2023-02-23T02:57:44;86949.20;;;19.66
76394;BMP180;65216;51.090;-115.352;2023-02-23T03:00:28;86956.20;;;19.60
76394;BMP180;65216;51.090;-115.352;2023-02-23T03:03:40;86961.40;;;19.60
76394;BMP180;65216;51.090;-115.352;2023-02-23T03:06:37;86952.80;;;19.60
76394;BMP180;65216;51.090;-115.352;2023-02-23T03:10:09;86953.80;;;19.60
76394;BMP180;65216;51.090;-115.352;2023-02-23T03:20:05;86977.60;;;19.60
76394;BMP180;65216;51.090;-115.352;2023-02-23T03:23:01;86967.20;;;19.60
76394;BMP180;65216;51.090;-115.352;2023-02-23T03:32:21;86969.80;;;19.50
76394;BMP180;65216;51.090;-115.352;2023-02-23T03:35:33;86980.20;;;19.50
76394;BMP180;65216;51.090;-115.352;2023-02-23T03:38:32;86980.40;;;19.50
76394;BMP180;65216;51.090;-115.352;2023-02-23T03:41:23;86986.20;;;19.50
76394;BMP180;65216;51.090;-115.352;2023-02-23T03:44:24;86984.40;;;19.50
76394;BMP180;65216;51.090;-115.352;2023-02-23T03:47:14;86985.80;;;19.40
76394;BMP180;65216;51.090;-115.352;2023-02-23T03:50:10;86987.40;;;19.40
76394;BMP180;65216;51.090;-115.352;2023-02-23T03:53:00;86990.80;;;19.40
76394;BMP180;65216;51.090;-115.352;2023-02-23T03:55:54;86989.40;;;19.40
76394;BMP180;65216;51.090;-115.352;2023-02-23T03:58:50;86995.40;;;19.36
76394;BMP180;65216;51.090;-115.352;2023-02-23T04:01:38;86996.20;;;19.30
76394;BMP180;65216;51.090;-115.352;2023-02-23T04:04:28;86997.60;;;19.20
76394;BMP180;65216;51.090;-115.352;2023-02-23T04:07:18;87000.80;;;19.20
76394;BMP180;65216;51.090;-115.352;2023-02-23T04:10:05;87005.80;;;19.20
76394;BMP180;65216;51.090;-115.352;2023-02-23T04:13:18;87004.80;;;19.20
76394;BMP180;65216;51.090;-115.352;2023-02-23T04:15:59;87002.60;;;19.20
76394;BMP180;65216;51.090;-115.352;2023-02-23T04:18:31;87014.00;;;19.18
76394;BMP180;65216;51.090;-115.352;2023-02-23T04:20:59;87020.80;;;19.10
76394;BMP180;65216;51.090;-115.352;2023-02-23T04:23:28;87018.20;;;19.10
76394;BMP180;65216;51.090;-115.352;2023-02-23T04:25:56;87020.20;;;19.10
76394;BMP180;65216;51.090;-115.352;2023-02-23T04:28:26;87021.00;;;19.20
76394;BMP180;65216;51.090;-115.352;2023-02-23T04:30:53;87022.40;;;19.10
76394;BMP180;65216;51.090;-115.352;2023-02-23T04:33:22;87023.80;;;19.16
76394;BMP180;65216;51.090;-115.352;2023-02-23T04:35:53;87024.60;;;19.10
76394;BMP180;65216;51.090;-115.352;2023-02-23T04:38:22;87020.80;;;19.10
76394;BMP180;65216;51.090;-115.352;2023-02-23T04:40:49;87028.00;;;19.10
76394;BMP180;65216;51.090;-115.352;2023-02-23T04:43:16;87026.20;;;19.10
76394;BMP180;65216;51.090;-115.352;2023-02-23T04:45:44;87034.00;;;19.10
76394;BMP180;65216;51.090;-115.352;2023-02-23T04:48:12;87033.40;;;19.10
76394;BMP180;65216;51.090;-115.352;2023-02-23T04:50:40;87029.40;;;19.10
76394;BMP180;65216;51.090;-115.352;2023-02-23T04:53:08;87033.00;;;19.10
76394;BMP180;65216;51.090;-115.352;2023-02-23T04:55:35;87034.80;;;19.10
76394;BMP180;65216;51.090;-115.352;2023-02-23T04:58:04;87034.00;;;19.10
76394;BMP180;65216;51.090;-115.352;2023-02-23T05:00:31;87034.40;;;19.10
76394;BMP180;65216;51.090;-115.352;2023-02-23T05:02:59;87027.20;;;19.10
76394;BMP180;65216;51.090;-115.352;2023-02-23T05:05:28;87034.60;;;19.10
76394;BMP180;65216;51.090;-115.352;2023-02-23T05:07:55;87035.00;;;19.10
76394;BMP180;65216;51.090;-115.352;2023-02-23T05:10:23;87029.60;;;19.10
76394;BMP180;65216;51.090;-115.352;2023-02-23T05:12:51;87030.00;;;19.10
76394;BMP180;65216;51.090;-115.352;2023-02-23T05:15:18;87034.60;;;19.10
76394;BMP180;65216;51.090;-115.352;2023-02-23T05:17:46;87031.60;;;19.06
76394;BMP180;65216;51.090;-115.352;2023-02-23T05:20:17;87028.20;;;19.04
76394;BMP180;65216;51.090;-115.352;2023-02-23T05:22:47;87027.00;;;19.00
76394;BMP180;65216;51.090;-115.352;2023-02-23T05:25:15;87026.80;;;19.00
76394;BMP180;65216;51.090;-115.352;2023-02-23T05:27:42;87016.60;;;19.00
76394;BMP180;65216;51.090;-115.352;2023-02-23T05:30:10;87024.40;;;19.00
76394;BMP180;65216;51.090;-115.352;2023-02-23T05:32:38;87024.60;;;19.00
76394;BMP180;65216;51.090;-115.352;2023-02-23T05:35:06;87026.80;;;19.00
76394;BMP180;65216;51.090;-115.352;2023-02-23T05:37:34;87030.00;;;19.00
76394;BMP180;65216;51.090;-115.352;2023-02-23T05:40:02;87031.20;;;19.00
76394;BMP180;65216;51.090;-115.352;2023-02-23T05:42:29;87033.20;;;19.00
76394;BMP180;65216;51.090;-115.352;2023-02-23T05:44:57;87031.80;;;19.00
76394;BMP180;65216;51.090;-115.352;2023-02-23T05:47:24;87035.20;;;19.00
76394;BMP180;65216;51.090;-115.352;2023-02-23T05:49:52;87041.40;;;19.00
76394;BMP180;65216;51.090;-115.352;2023-02-23T05:52:19;87037.40;;;19.00
76394;BMP180;65216;51.090;-115.352;2023-02-23T05:55:10;87042.00;;;19.00
76394;BMP180;65216;51.090;-115.352;2023-02-23T05:57:41;87040.80;;;18.90
76394;BMP180;65216;51.090;-115.352;2023-02-23T06:00:13;87040.00;;;18.90
76394;BMP180;65216;51.090;-115.352;2023-02-23T06:02:40;87040.00;;;18.90
76394;BMP180;65216;51.090;-115.352;2023-02-23T06:05:10;87043.00;;;18.90
76394;BMP180;65216;51.090;-115.352;2023-02-23T06:07:39;87037.80;;;18.90
76394;BMP180;65216;51.090;-115.352;2023-02-23T06:10:07;87042.80;;;18.90
76394;BMP180;65216;51.090;-115.352;2023-02-23T06:12:34;87036.40;;;18.90
76394;BMP180;65216;51.090;-115.352;2023-02-23T06:15:02;87037.00;;;18.90
76394;BMP180;65216;51.090;-115.352;2023-02-23T06:17:30;87032.80;;;18.90
76394;BMP180;65216;51.090;-115.352;2023-02-23T06:20:00;87029.60;;;18.90
76394;BMP180;65216;51.090;-115.352;2023-02-23T06:22:30;87028.80;;;18.90
76394;BMP180;65216;51.090;-115.352;2023-02-23T06:24:58;87026.40;;;18.90
76394;BMP180;65216;51.090;-115.352;2023-02-23T06:27:25;87023.40;;;18.90
76394;BMP180;65216;51.090;-115.352;2023-02-23T06:29:53;87026.00;;;18.90
76394;BMP180;65216;51.090;-115.352;2023-02-23T06:32:20;87021.80;;;18.90
76394;BMP180;65216;51.090;-115.352;2023-02-23T06:34:48;87034.60;;;18.90
76394;BMP180;65216;51.090;-115.352;2023-02-23T06:37:15;87032.40;;;18.90
76394;BMP180;65216;51.090;-115.352;2023-02-23T06:39:46;87034.40;;;18.90
76394;BMP180;65216;51.090;-115.352;2023-02-23T06:42:14;87024.40;;;18.90
76394;BMP180;65216;51.090;-115.352;2023-02-23T06:44:41;87024.00;;;18.90
76394;BMP180;65216;51.090;-115.352;2023-02-23T06:47:09;87024.60;;;18.90
76394;BMP180;65216;51.090;-115.352;2023-02-23T06:49:36;87025.20;;;18.90
76394;BMP180;65216;51.090;-115.352;2023-02-23T06:52:07;87027.40;;;18.90
76394;BMP180;65216;51.090;-115.352;2023-02-23T06:54:35;87031.60;;;18.90
76394;BMP180;65216;51.090;-115.352;2023-02-23T06:57:07;87030.20;;;18.90
76394;BMP180;65216;51.090;-115.352;2023-02-23T06:59:34;87030.00;;;18.90
76394;BMP180;65216;51.090;-115.352;2023-02-23T07:02:04;87031.20;;;18.90
76394;BMP180;65216;51.090;-115.352;2023-02-23T07:04:32;87031.60;;;18.90
76394;BMP180;65216;51.090;-115.352;2023-02-23T07:07:02;87033.40;;;18.90
76394;BMP180;65216;51.090;-115.352;2023-02-23T07:09:29;87044.40;;;18.90
76394;BMP180;65216;51.090;-115.352;2023-02-23T07:11:57;87039.00;;;18.90
76394;BMP180;65216;51.090;-115.352;2023-02-23T07:14:25;87037.80;;;18.88
76394;BMP180;65216;51.090;-115.352;2023-02-23T07:16:53;87039.60;;;18.80
76394;BMP180;65216;51.090;-115.352;2023-02-23T07:19:20;87039.60;;;18.80
76394;BMP180;65216;51.090;-115.352;2023-02-23T07:21:49;87042.60;;;18.80
76394;BMP180;65216;51.090;-115.352;2023-02-23T07:24:16;87035.60;;;18.80
76394;BMP180;65216;51.090;-115.352;2023-02-23T07:26:43;87039.80;;;18.80
76394;BMP180;65216;51.090;-115.352;2023-02-23T07:29:13;87038.60;;;18.80
76394;BMP180;65216;51.090;-115.352;2023-02-23T07:31:41;87035.60;;;18.80
76394;BMP180;65216;51.090;-115.352;2023-02-23T07:34:09;87035.00;;;18.80
76394;BMP180;65216;51.090;-115.352;2023-02-23T07:36:39;87040.00;;;18.80
76394;BMP180;65216;51.090;-115.352;2023-02-23T07:39:09;87042.40;;;18.80
76394;BMP180;65216;51.090;-115.352;2023-02-23T07:41:37;87046.00;;;18.72
76394;BMP180;65216;51.090;-115.352;2023-02-23T07:44:05;87044.40;;;18.70
76394;BMP180;65216;51.090;-115.352;2023-02-23T07:46:32;87051.00;;;18.70
76394;BMP180;65216;51.090;-115.352;2023-02-23T07:48:59;87049.00;;;18.70
76394;BMP180;65216;51.090;-115.352;2023-02-23T07:51:27;87048.60;;;18.70
76394;BMP180;65216;51.090;-115.352;2023-02-23T07:53:54;87050.40;;;18.70
76394;BMP180;65216;51.090;-115.352;2023-02-23T07:56:22;87047.20;;;18.70
76394;BMP180;65216;51.090;-115.352;2023-02-23T07:58:49;87050.80;;;18.70
76394;BMP180;65216;51.090;-115.352;2023-02-23T08:01:17;87059.60;;;18.70
76394;BMP180;65216;51.090;-115.352;2023-02-23T08:03:45;87061.80;;;18.70
76394;BMP180;65216;51.090;-115.352;2023-02-23T08:06:16;87062.80;;;18.62
76394;BMP180;65216;51.090;-115.352;2023-02-23T08:08:44;87064.60;;;18.64
76394;BMP180;65216;51.090;-115.352;2023-02-23T08:11:11;87069.20;;;18.60
76394;BMP180;65216;51.090;-115.352;2023-02-23T08:13:39;87068.40;;;18.60
76394;BMP180;65216;51.090;-115.352;2023-02-23T08:16:09;87068.20;;;18.60
76394;BMP180;65216;51.090;-115.352;2023-02-23T08:18:37;87072.20;;;18.60
76394;BMP180;65216;51.090;-115.352;2023-02-23T08:21:05;87068.60;;;18.60
76394;BMP180;65216;51.090;-115.352;2023-02-23T08:23:34;87071.00;;;18.60
76394;BMP180;65216;51.090;-115.352;2023-02-23T08:26:02;87071.80;;;18.60
76394;BMP180;65216;51.090;-115.352;2023-02-23T08:28:30;87067.60;;;18.60
76394;BMP180;65216;51.090;-115.352;2023-02-23T08:31:00;87074.40;;;18.60
76394;BMP180;65216;51.090;-115.352;2023-02-23T08:33:28;87077.00;;;18.60
76394;BMP180;65216;51.090;-115.352;2023-02-23T08:35:58;87081.60;;;18.60
76394;BMP180;65216;51.090;-115.352;2023-02-23T08:38:31;87080.80;;;18.60
76394;BMP180;65216;51.090;-115.352;2023-02-23T08:41:03;87082.80;;;18.60
76394;BMP180;65216;51.090;-115.352;2023-02-23T08:43:31;87083.40;;;18.60
76394;BMP180;65216;51.090;-115.352;2023-02-23T08:45:59;87086.80;;;18.50
76394;BMP180;65216;51.090;-115.352;2023-02-23T08:48:26;87085.80;;;18.50
76394;BMP180;65216;51.090;-115.352;2023-02-23T08:50:58;87087.60;;;18.50
76394;BMP180;65216;51.090;-115.352;2023-02-23T08:53:27;87085.80;;;18.50
76394;BMP180;65216;51.090;-115.352;2023-02-23T08:56:04;87088.00;;;18.50
76394;BMP180;65216;51.090;-115.352;2023-02-23T08:58:34;87094.60;;;18.50
76394;BMP180;65216;51.090;-115.352;2023-02-23T09:01:02;87089.00;;;18.50
76394;BMP180;65216;51.090;-115.352;2023-02-23T09:03:31;87092.80;;;18.50
76394;BMP180;65216;51.090;-115.352;2023-02-23T09:06:13;87093.80;;;18.40
76394;BMP180;65216;51.090;-115.352;2023-02-23T09:08:41;87093.80;;;18.40
76394;BMP180;65216;51.090;-115.352;2023-02-23T09:11:09;87094.80;;;18.40
76394;BMP180;65216;51.090;-115.352;2023-02-23T09:13:36;87101.20;;;18.40
76394;BMP180;65216;51.090;-115.352;2023-02-23T09:16:05;87107.20;;;18.40
76394;BMP180;65216;51.090;-115.352;2023-02-23T09:18:33;87112.40;;;18.40
76394;BMP180;65216;51.090;-115.352;2023-02-23T09:21:04;87112.00;;;18.40
76394;BMP180;65216;51.090;-115.352;2023-02-23T09:23:37;87117.60;;;18.34
76394;BMP180;65216;51.090;-115.352;2023-02-23T09:26:09;87116.60;;;18.30
76394;BMP180;65216;51.090;-115.352;2023-02-23T09:28:37;87117.00;;;18.30
76394;BMP180;65216;51.090;-115.352;2023-02-23T09:31:15;87118.60;;;18.30
76394;BMP180;65216;51.090;-115.352;2023-02-23T09:33:43;87116.60;;;18.30
76394;BMP180;65216;51.090;-115.352;2023-02-23T09:36:17;87111.60;;;18.30
76394;BMP180;65216;51.090;-115.352;2023-02-23T09:38:52;87118.80;;;18.30
76394;BMP180;65216;51.090;-115.352;2023-02-23T09:41:57;87121.40;;;18.30
76394;BMP180;65216;51.090;-115.352;2023-02-23T09:44:47;87126.40;;;18.22
76394;BMP180;65216;51.090;-115.352;2023-02-23T09:47:53;87131.80;;;18.20
76394;BMP180;65216;51.090;-115.352;2023-02-23T09:50:33;87126.20;;;18.20
76394;BMP180;65216;51.090;-115.352;2023-02-23T09:56:35;87132.20;;;18.20
76394;BMP180;65216;51.090;-115.352;2023-02-23T09:59:15;87130.60;;;18.20
76394;BMP180;65216;51.090;-115.352;2023-02-23T10:05:01;87130.60;;;18.20
76394;BMP180;65216;51.090;-115.352;2023-02-23T10:08:02;87130.20;;;18.20
76394;BMP180;65216;51.090;-115.352;2023-02-23T10:11:07;87136.60;;;18.18
76394;BMP180;65216;51.090;-115.352;2023-02-23T10:13:51;87139.60;;;18.20
76394;BMP180;65216;51.090;-115.352;2023-02-23T10:22:17;87142.80;;;18.10
76394;BMP180;65216;51.090;-115.352;2023-02-23T10:24:56;87146.40;;;18.10
76394;BMP180;65216;51.090;-115.352;2023-02-23T10:27:37;87146.60;;;18.10
76394;BMP180;65216;51.090;-115.352;2023-02-23T10:30:29;87146.20;;;18.10
76394;BMP180;65216;51.090;-115.352;2023-02-23T10:35:45;87150.40;;;18.02
76394;BMP180;65216;51.090;-115.352;2023-02-23T10:38:18;87152.00;;;18.00
76394;BMP180;65216;51.090;-115.352;2023-02-23T10:40:53;87150.00;;;18.00
76394;BMP180;65216;51.090;-115.352;2023-02-23T10:43:21;87153.80;;;18.00
76394;BMP180;65216;51.090;-115.352;2023-02-23T10:45:51;87158.00;;;18.00
76394;BMP180;65216;51.090;-115.352;2023-02-23T10:48:28;87158.20;;;18.00
76394;BMP180;65216;51.090;-115.352;2023-02-23T10:50:58;87164.00;;;18.00
76394;BMP180;65216;51.090;-115.352;2023-02-23T10:53:35;87165.00;;;18.00
76394;BMP180;65216;51.090;-115.352;2023-02-23T10:56:09;87159.60;;;17.90
76394;BMP180;65216;51.090;-115.352;2023-02-23T10:58:59;87160.60;;;17.90
76394;BMP180;65216;51.090;-115.352;2023-02-23T11:01:40;87158.40;;;17.90
76394;BMP180;65216;51.090;-115.352;2023-02-23T11:04:22;87165.40;;;17.90
76394;BMP180;65216;51.090;-115.352;2023-02-23T11:06:49;87166.40;;;17.90
76394;BMP180;65216;51.090;-115.352;2023-02-23T11:09:24;87166.80;;;17.90
76394;BMP180;65216;51.090;-115.352;2023-02-23T11:14:58;87171.20;;;17.84
76394;BMP180;65216;51.090;-115.352;2023-02-23T11:17:34;87171.20;;;17.80
76394;BMP180;65216;51.090;-115.352;2023-02-23T11:22:45;87176.80;;;17.80
76394;BMP180;65216;51.090;-115.352;2023-02-23T11:25:22;87185.00;;;17.80
76394;BMP180;65216;51.090;-115.352;2023-02-23T11:27:50;87192.60;;;17.88
76394;BMP180;65216;51.090;-115.352;2023-02-23T11:30:30;87193.60;;;17.90
76394;BMP180;65216;51.090;-115.352;2023-02-23T11:33:04;87196.60;;;17.90
76394;BMP180;65216;51.090;-115.352;2023-02-23T11:35:37;87193.40;;;17.90
76394;BMP180;65216;51.090;-115.352;2023-02-23T11:38:31;87195.40;;;17.90
76394;BMP180;65216;51.090;-115.352;2023-02-23T11:41:19;87198.80;;;17.90
76394;BMP180;65216;51.090;-115.352;2023-02-23T11:43:57;87200.20;;;17.90
76394;BMP180;65216;51.090;-115.352;2023-02-23T11:46:27;87198.00;;;17.90
76394;BMP180;65216;51.090;-115.352;2023-02-23T11:49:12;87194.20;;;17.86
76394;BMP180;65216;51.090;-115.352;2023-02-23T11:51:48;87198.60;;;17.88
76394;BMP180;65216;51.090;-115.352;2023-02-23T11:54:32;87198.40;;;17.86
76394;BMP180;65216;51.090;-115.352;2023-02-23T11:57:01;87198.20;;;17.80
76394;BMP180;65216;51.090;-115.352;2023-02-23T11:59:37;87197.20;;;17.80
76394;BMP180;65216;51.090;-115.352;2023-02-23T12:05:03;87212.20;;;17.80
76394;BMP180;65216;51.090;-115.352;2023-02-23T12:07:36;87216.20;;;17.80
76394;BMP180;65216;51.090;-115.352;2023-02-23T12:10:28;87220.20;;;17.80
76394;BMP180;65216;51.090;-115.352;2023-02-23T12:13:15;87217.00;;;17.80
76394;BMP180;65216;51.090;-115.352;2023-02-23T12:19:33;87216.80;;;17.80
76394;BMP180;65216;51.090;-115.352;2023-02-23T12:23:08;87219.00;;;17.80
76394;BMP180;65216;51.090;-115.352;2023-02-23T12:28:51;87219.20;;;17.80
76394;BMP180;65216;51.090;-115.352;2023-02-23T12:31:50;87224.20;;;17.80
76394;BMP180;65216;51.090;-115.352;2023-02-23T12:34:57;87222.80;;;17.80
76394;BMP180;65216;51.090;-115.352;2023-02-23T12:37:40;87227.00;;;17.80
76394;BMP180;65216;51.090;-115.352;2023-02-23T12:40:42;87228.40;;;17.80
76394;BMP180;65216;51.090;-115.352;2023-02-23T12:46:36;87234.60;;;17.80
76394;BMP180;65216;51.090;-115.352;2023-02-23T12:49:24;87236.00;;;17.80
76394;BMP180;65216;51.090;-115.352;2023-02-23T12:52:17;87237.20;;;17.80
76394;BMP180;65216;51.090;-115.352;2023-02-23T12:54:46;87241.20;;;17.80
76394;BMP180;65216;51.090;-115.352;2023-02-23T12:57:53;87245.00;;;17.80
76394;BMP180;65216;51.090;-115.352;2023-02-23T13:01:07;87240.40;;;17.80
76394;BMP180;65216;51.090;-115.352;2023-02-23T13:03:58;87252.20;;;17.80
76394;BMP180;65216;51.090;-115.352;2023-02-23T13:06:43;87254.20;;;17.82
76394;BMP180;65216;51.090;-115.352;2023-02-23T13:12:33;87261.60;;;17.88
76394;BMP180;65216;51.090;-115.352;2023-02-23T13:15:26;87267.40;;;17.86
76394;BMP180;65216;51.090;-115.352;2023-02-23T13:26:28;87266.00;;;17.88
76394;BMP180;65216;51.090;-115.352;2023-02-23T13:32:23;87261.00;;;17.90
76394;BMP180;65216;51.090;-115.352;2023-02-23T13:35:03;87259.20;;;17.90
76394;BMP180;65216;51.090;-115.352;2023-02-23T13:37:47;87260.80;;;17.90
76394;BMP180;65216;51.090;-115.352;2023-02-23T13:43:45;87253.40;;;17.90
76394;BMP180;65216;51.090;-115.352;2023-02-23T13:47:05;87255.80;;;17.90
76394;BMP180;65216;51.090;-115.352;2023-02-23T13:52:52;87265.20;;;17.90
76394;BMP180;65216;51.090;-115.352;2023-02-23T13:58:13;87259.40;;;17.90
76394;BMP180;65216;51.090;-115.352;2023-02-23T14:01:04;87265.40;;;17.90
76394;BMP180;65216;51.090;-115.352;2023-02-23T14:03:53;87264.60;;;17.90
76394;BMP180;65216;51.090;-115.352;2023-02-23T14:06:28;87270.80;;;17.90
76394;BMP180;65216;51.090;-115.352;2023-02-23T14:09:27;87274.60;;;17.90
76394;BMP180;65216;51.090;-115.352;2023-02-23T14:12:37;87279.60;;;17.90
76394;BMP180;65216;51.090;-115.352;2023-02-23T14:18:26;87291.00;;;17.90
76394;BMP180;65216;51.090;-115.352;2023-02-23T14:24:22;87295.20;;;17.90
76394;BMP180;65216;51.090;-115.352;2023-02-23T14:32:44;87297.20;;;17.90
76394;BMP180;65216;51.090;-115.352;2023-02-23T14:38:28;87299.60;;;17.86
76394;BMP180;65216;51.090;-115.352;2023-02-23T14:41:00;87294.20;;;17.88
76394;BMP180;65216;51.090;-115.352;2023-02-23T14:43:38;87297.40;;;17.90
76394;BMP180;65216;51.090;-115.352;2023-02-23T14:46:19;87302.20;;;17.88
76394;BMP180;65216;51.090;-115.352;2023-02-23T14:49:09;87299.20;;;17.90
76394;BMP180;65216;51.090;-115.352;2023-02-23T14:51:49;87307.60;;;17.84
76394;BMP180;65216;51.090;-115.352;2023-02-23T14:54:39;87309.80;;;17.80
76394;BMP180;65216;51.090;-115.352;2023-02-23T14:57:24;87307.00;;;17.80
76394;BMP180;65216;51.090;-115.352;2023-02-23T15:00:06;87308.80;;;17.84
76394;BMP180;65216;51.090;-115.352;2023-02-23T15:02:34;87312.20;;;17.80
76394;BMP180;65216;51.090;-115.352;2023-02-23T15:05:16;87313.80;;;17.80
76394;BMP180;65216;51.090;-115.352;2023-02-23T15:07:47;87318.20;;;17.80
76394;BMP180;65216;51.090;-115.352;2023-02-23T15:15:41;87317.60;;;17.80
76394;BMP180;65216;51.090;-115.352;2023-02-23T15:18:35;87317.40;;;17.80
76394;BMP180;65216;51.090;-115.352;2023-02-23T15:21:23;87312.80;;;17.80
76394;BMP180;65216;51.090;-115.352;2023-02-23T15:24:13;87316.00;;;17.86
76394;BMP180;65216;51.090;-115.352;2023-02-23T15:26:47;87321.60;;;17.90
76394;BMP180;65216;51.090;-115.352;2023-02-23T15:29:18;87325.80;;;17.90
76394;BMP180;65216;51.090;-115.352;2023-02-23T15:31:50;87329.00;;;17.90
76394;BMP180;65216;51.090;-115.352;2023-02-23T15:34:25;87327.60;;;17.90
76394;BMP180;65216;51.090;-115.352;2023-02-23T15:37:02;87324.40;;;17.90
76394;BMP180;65216;51.090;-115.352;2023-02-23T15:39:49;87331.20;;;17.90
76394;BMP180;65216;51.090;-115.352;2023-02-23T15:42:26;87329.40;;;17.90
76394;BMP180;65216;51.090;-115.352;2023-02-23T15:45:01;87335.40;;;17.90
76394;BMP180;65216;51.090;-115.352;2023-02-23T15:47:37;87337.00;;;17.90
76394;BMP180;65216;51.090;-115.352;2023-02-23T15:50:31;87340.00;;;17.90
76394;BMP180;65216;51.090;-115.352;2023-02-23T15:53:07;87344.00;;;17.96
76394;BMP180;65216;51.090;-115.352;2023-02-23T15:55:43;87350.00;;;18.00
76394;BMP180;65216;51.090;-115.352;2023-02-23T15:58:37;87355.20;;;18.00
76394;BMP180;65216;51.090;-115.352;2023-02-23T16:01:19;87346.20;;;18.00
76394;BMP180;65216;51.090;-115.352;2023-02-23T16:04:06;87354.00;;;18.00
76394;BMP180;65216;51.090;-115.352;2023-02-23T16:06:47;87360.40;;;18.00
76394;BMP180;65216;51.090;-115.352;2023-02-23T16:12:18;87359.20;;;18.00
76394;BMP180;65216;51.090;-115.352;2023-02-23T16:14:57;87362.20;;;18.10
76394;BMP180;65216;51.090;-115.352;2023-02-23T16:20:22;87361.80;;;18.10
76394;BMP180;65216;51.090;-115.352;2023-02-23T16:22:59;87358.40;;;18.10